Time;durP1;ratioP1;P1;durP2;ratioP2;P2;SDS_P1;SDS_P2;PMS_P1;PMS_P2;Temp;Humidity;BMP_temperature;BMP_pressure;BME280_temperature;BME280_humidity;BME280_pressure;Samples;Min_cycle;Max_cycle;Signal;HPM_P1;HPM_P2
2022/11/19 00:02:01;;;;;;;1.60;1.50;;;;;;;12.23;100.00;93634.72;5130992;27;20209;-78
2022/11/19 00:04:28;;;;;;;2.17;1.60;;;;;;;12.30;100.00;93645.69;5130462;27;20253;-79
2022/11/19 00:06:54;;;;;;;2.77;2.00;;;;;;;12.42;100.00;93640.25;5134143;27;20198;-79
2022/11/19 00:09:23;;;;;;;2.53;1.67;;;;;;;12.52;100.00;93633.28;5134679;27;20198;-79
2022/11/19 00:14:45;;;;;;;1.63;1.40;;;;;;;12.70;100.00;93657.34;5059236;28;20190;-78
2022/11/19 00:17:12;;;;;;;2.57;1.50;;;;;;;12.68;100.00;93639.34;5116887;27;20570;-80
2022/11/19 00:19:38;;;;;;;1.40;1.30;;;;;;;12.72;100.00;93658.66;5135759;27;20213;-79
2022/11/19 00:22:05;;;;;;;1.00;1.00;;;;;;;12.72;100.00;93660.47;5137402;27;21252;-79
2022/11/19 00:24:33;;;;;;;1.60;1.20;;;;;;;12.55;100.00;93637.22;5131752;27;20590;-79
2022/11/19 00:27:00;;;;;;;3.20;1.70;;;;;;;12.57;100.00;93661.19;5132707;27;20187;-79
2022/11/19 00:29:27;;;;;;;3.67;1.90;;;;;;;12.61;100.00;93664.84;5130434;27;20195;-77
2022/11/19 00:31:54;;;;;;;2.67;1.50;;;;;;;12.46;100.00;93660.38;5133860;27;20709;-78
2022/11/19 00:34:20;;;;;;;1.60;1.20;;;;;;;12.35;100.00;93666.53;5132186;27;20551;-78
2022/11/19 00:36:47;;;;;;;1.73;1.20;;;;;;;12.40;100.00;93665.81;5131124;27;20644;-79
2022/11/19 00:39:14;;;;;;;1.23;0.93;;;;;;;12.42;100.00;93668.94;5130645;27;20652;-78
2022/11/19 00:41:42;;;;;;;0.90;0.90;;;;;;;12.49;100.00;93680.72;5131304;27;20210;-79
2022/11/19 00:44:09;;;;;;;1.20;1.10;;;;;;;12.54;100.00;93672.13;5130450;27;20194;-78
2022/11/19 00:46:36;;;;;;;1.30;1.20;;;;;;;12.50;100.00;93673.66;5130179;27;20210;-79
2022/11/19 00:49:03;;;;;;;2.07;1.40;;;;;;;12.48;100.00;93670.53;5133811;27;20198;-79
2022/11/19 00:51:30;;;;;;;1.80;1.40;;;;;;;12.37;100.00;93661.88;5135200;27;20215;-78
2022/11/19 00:53:58;;;;;;;2.07;1.40;;;;;;;12.11;100.00;93661.97;5134739;27;20195;-78
2022/11/19 00:56:27;;;;;;;1.93;1.40;;;;;;;12.04;100.00;93677.81;5132364;27;20700;-79
2022/11/19 00:58:56;;;;;;;4.47;1.60;;;;;;;12.04;100.00;93664.81;5129630;27;20540;-78
2022/11/19 01:01:24;;;;;;;3.10;1.77;;;;;;;12.08;100.00;93660.66;5130543;27;20199;-79
2022/11/19 01:03:51;;;;;;;5.33;2.40;;;;;;;12.17;100.00;93668.78;5131696;27;20199;-79
2022/11/19 01:06:21;;;;;;;5.10;2.50;;;;;;;12.09;100.00;93664.81;5129764;27;20187;-79
2022/11/19 01:08:48;;;;;;;1.50;1.40;;;;;;;12.23;100.00;93675.59;5130519;27;20195;-78
2022/11/19 01:11:17;;;;;;;2.37;1.60;;;;;;;12.23;100.00;93688.63;5132576;27;20199;-78
2022/11/19 01:13:44;;;;;;;1.80;1.47;;;;;;;12.23;100.00;93686.03;5134945;27;20187;-78
2022/11/19 01:16:14;;;;;;;3.43;1.63;;;;;;;12.18;100.00;93675.59;5129483;27;20195;-78
2022/11/19 01:18:42;;;;;;;2.47;1.67;;;;;;;12.22;100.00;93676.63;5129832;27;20196;-79
2022/11/19 01:21:10;;;;;;;2.27;1.70;;;;;;;12.20;100.00;93682.09;5133395;27;20207;-78
2022/11/19 01:23:38;;;;;;;3.90;1.90;;;;;;;12.22;100.00;93685.25;5130544;27;20199;-78
2022/11/19 01:26:05;;;;;;;2.37;1.80;;;;;;;12.16;100.00;93690.66;5129654;27;20220;-78
2022/11/19 01:28:32;;;;;;;1.60;1.40;;;;;;;12.16;100.00;93675.03;5130732;27;20252;-79
2022/11/19 01:30:59;;;;;;;1.67;1.33;;;;;;;12.23;100.00;93684.22;5128120;27;21661;-79
2022/11/19 01:33:28;;;;;;;1.73;1.53;;;;;;;12.23;100.00;93688.63;5129936;27;20216;-79
2022/11/19 01:35:56;;;;;;;4.67;2.20;;;;;;;12.29;100.00;93682.41;5130350;27;20203;-79
2022/11/19 01:38:23;;;;;;;5.07;3.03;;;;;;;12.35;100.00;93678.81;5129452;27;20613;-80
2022/11/19 01:40:50;;;;;;;4.97;2.80;;;;;;;12.39;100.00;93678.03;5131085;27;20195;-79
2022/11/19 01:43:17;;;;;;;5.23;2.40;;;;;;;12.37;100.00;93689.75;5128835;27;20196;-79
2022/11/19 01:45:47;;;;;;;4.40;2.17;;;;;;;12.36;100.00;93681.16;5133184;27;20660;-79
2022/11/19 01:48:18;;;;;;;3.50;2.07;;;;;;;12.39;100.00;93688.47;5135074;27;20245;-79
2022/11/19 01:50:50;;;;;;;3.87;2.10;;;;;;;12.39;100.00;93688.47;5138416;27;20251;-79
2022/11/19 01:53:19;;;;;;;3.33;2.37;;;;;;;12.38;100.00;93681.66;5133200;27;20195;-79
2022/11/19 01:55:47;;;;;;;3.87;1.93;;;;;;;12.37;100.00;93685.34;5132105;27;20808;-78
2022/11/19 01:58:17;;;;;;;4.40;1.93;;;;;;;12.39;100.00;93688.47;5132302;27;20851;-80
2022/11/19 02:00:44;;;;;;;4.00;2.00;;;;;;;12.39;100.00;93679.84;5135182;27;20199;-79
2022/11/19 02:03:12;;;;;;;4.00;1.83;;;;;;;12.34;100.00;93696.25;5132086;27;20688;-78
2022/11/19 02:05:58;;;;;;;3.20;1.90;;;;;;;12.23;100.00;93673.78;5135393;27;20225;-79
2022/11/19 02:08:39;;;;;;;3.87;2.10;;;;;;;12.21;100.00;93681.06;5129028;27;20256;-80
2022/11/19 02:11:29;;;;;;;2.37;1.40;;;;;;;12.27;100.00;93682.66;5135606;27;20248;-79
2022/11/19 02:14:07;;;;;;;2.90;1.73;;;;;;;12.34;100.00;93685.84;5118774;27;20203;-79
2022/11/19 02:16:52;;;;;;;3.90;1.83;;;;;;;12.41;100.00;93696.00;5132842;27;21010;-80
2022/11/19 02:19:44;;;;;;;2.27;1.90;;;;;;;12.37;100.00;93684.53;5135881;27;20201;-80
2022/11/19 02:22:28;;;;;;;3.07;2.00;;;;;;;12.36;100.00;93702.00;5135212;27;20196;-79
2022/11/19 02:25:06;;;;;;;3.20;2.10;;;;;;;12.37;100.00;93698.34;5135247;27;20607;-79
2022/11/19 02:27:56;;;;;;;1.97;1.70;;;;;;;12.27;100.00;93706.09;5133759;27;20194;-80
2022/11/19 02:30:24;;;;;;;3.20;2.07;;;;;;;12.31;100.00;93693.38;5123021;27;20207;-78
2022/11/19 02:33:06;;;;;;;5.23;2.07;;;;;;;12.22;100.00;93698.25;5132699;27;20282;-79
2022/11/19 02:35:44;;;;;;;3.17;2.27;;;;;;;12.19;100.00;93697.97;5131796;27;20195;-78
2022/11/19 02:38:18;;;;;;;3.83;2.60;;;;;;;12.29;100.00;93709.25;5132514;27;20321;-79
2022/11/19 02:40:50;;;;;;;4.60;2.50;;;;;;;12.38;100.00;93723.34;5133076;27;20199;-80
2022/11/19 02:43:22;;;;;;;5.13;2.50;;;;;;;12.42;100.00;93727.03;5135925;27;20232;-79
2022/11/19 02:45:53;;;;;;;4.87;2.60;;;;;;;12.37;100.00;93715.81;5134375;27;20196;-79
2022/11/19 02:48:23;;;;;;;7.13;2.60;;;;;;;12.34;100.00;93729.34;5133800;27;20202;-78
2022/11/19 02:50:53;;;;;;;5.43;2.50;;;;;;;12.30;100.00;93730.88;5136941;27;20268;-78
2022/11/19 02:53:21;;;;;;;3.20;2.10;;;;;;;12.39;100.00;93729.34;5132230;27;20195;-78
2022/11/19 02:56:09;;;;;;;4.47;2.20;;;;;;;12.27;100.00;93747.78;5134043;27;20188;-78
2022/11/19 03:04:32;;;;;;;6.20;2.80;;;;;;;12.14;100.00;93763.06;5133731;27;20194;-79
2022/11/19 03:07:04;;;;;;;6.37;3.00;;;;;;;12.08;100.00;93769.25;5134320;27;20195;-78
2022/11/19 03:09:33;;;;;;;6.47;3.17;;;;;;;12.02;100.00;93775.47;5131591;27;20195;-78
2022/11/19 03:12:09;;;;;;;5.13;3.33;;;;;;;11.98;100.00;93769.94;5134227;27;20207;-78
2022/11/19 03:17:38;;;;;;;5.23;3.57;;;;;;;11.90;100.00;93796.44;5133505;27;20218;-78
2022/11/19 03:20:15;;;;;;;6.73;3.83;;;;;;;11.67;100.00;93773.28;5134652;27;20191;-80
2022/11/19 03:22:49;;;;;;;6.20;3.70;;;;;;;11.65;100.00;93783.97;5135088;27;20967;-79
2022/11/19 03:25:21;;;;;;;7.50;3.83;;;;;;;11.64;100.00;93784.19;5136106;27;20293;-78
2022/11/19 03:27:52;;;;;;;6.43;3.93;;;;;;;11.69;100.00;93785.06;5137071;27;20187;-78
2022/11/19 03:30:20;;;;;;;4.80;3.90;;;;;;;11.72;100.00;93794.97;5131854;27;20661;-78
2022/11/19 03:32:54;;;;;;;6.03;4.10;;;;;;;11.70;100.00;93791.84;5136093;27;20654;-78
2022/11/19 03:35:26;;;;;;;6.57;3.70;;;;;;;11.63;100.00;93795.66;5131305;27;20737;-78
2022/11/19 03:37:56;;;;;;;5.43;4.00;;;;;;;11.47;100.00;93796.50;5131855;27;20211;-78
2022/11/19 03:40:24;;;;;;;6.93;4.03;;;;;;;11.45;100.00;93801.97;5132109;27;20274;-78
2022/11/19 03:42:53;;;;;;;6.70;4.23;;;;;;;11.44;100.00;93797.78;5132116;27;20195;-78
2022/11/19 03:45:30;;;;;;;6.20;4.30;;;;;;;11.40;100.00;93807.09;5134571;27;20280;-78
2022/11/19 03:48:01;;;;;;;6.33;4.60;;;;;;;11.31;100.00;93803.38;5132231;27;20264;-79
2022/11/19 03:50:32;;;;;;;6.27;4.20;;;;;;;11.21;100.00;93798.84;5133588;27;20707;-78
2022/11/19 03:52:59;;;;;;;8.37;4.87;;;;;;;11.26;100.00;93809.28;5132363;27;20199;-77
2022/11/19 03:55:34;;;;;;;6.37;4.60;;;;;;;11.29;100.00;93814.00;5133461;27;20641;-77
2022/11/19 03:58:03;;;;;;;6.27;4.20;;;;;;;11.32;100.00;93807.53;5131441;27;20214;-78
2022/11/19 04:00:31;;;;;;;7.80;4.30;;;;;;;11.25;100.00;93814.75;5132815;27;20223;-78
2022/11/19 04:02:59;;;;;;;7.97;4.30;;;;;;;11.30;100.00;93822.59;5133903;27;20194;-78
2022/11/19 04:05:26;;;;;;;6.63;4.40;;;;;;;11.36;100.00;93825.03;5132916;27;20199;-78
2022/11/19 04:07:52;;;;;;;5.10;4.20;;;;;;;11.25;100.00;93820.75;5130753;27;20546;-79
2022/11/19 04:10:19;;;;;;;7.00;4.57;;;;;;;11.18;100.00;93827.91;5133119;27;20203;-78
2022/11/19 04:12:46;;;;;;;7.50;4.93;;;;;;;11.14;100.00;93839.81;5131177;27;20195;-80
2022/11/19 04:15:14;;;;;;;11.23;6.13;;;;;;;11.13;100.00;93837.47;5133374;27;20604;-77
2022/11/19 04:17:41;;;;;;;8.90;6.10;;;;;;;11.17;100.00;93844.53;5131192;27;20700;-78
2022/11/19 04:20:10;;;;;;;6.97;4.87;;;;;;;11.01;100.00;93839.38;5136272;27;20654;-78
2022/11/19 04:22:37;;;;;;;7.83;5.27;;;;;;;11.00;100.00;93832.59;5130818;27;20207;-78
2022/11/19 04:25:04;;;;;;;10.20;6.03;;;;;;;11.01;100.00;93837.59;5130231;27;20227;-77
2022/11/19 04:27:31;;;;;;;10.40;7.13;;;;;;;11.08;100.00;93848.59;5131758;27;20218;-79
2022/11/19 04:29:59;;;;;;;11.53;7.60;;;;;;;10.77;100.00;93807.63;5130774;27;20196;-78
2022/11/19 04:32:26;;;;;;;12.77;8.13;;;;;;;10.95;100.00;93846.34;5132717;27;20194;-80
2022/11/19 04:34:53;;;;;;;10.40;7.50;;;;;;;10.94;100.00;93857.00;5130009;27;20194;-79
2022/11/19 04:37:21;;;;;;;14.53;8.50;;;;;;;10.86;100.00;93857.38;5129722;27;20271;-79
2022/11/19 04:39:48;;;;;;;21.73;12.40;;;;;;;10.87;100.00;93862.34;5132432;27;20252;-79
2022/11/19 04:42:14;;;;;;;19.50;11.80;;;;;;;10.86;100.00;93873.75;5132133;27;20203;-78
2022/11/19 04:44:41;;;;;;;17.90;11.10;;;;;;;10.88;100.00;93874.31;5137406;27;20210;-79
2022/11/19 04:47:08;;;;;;;22.07;13.27;;;;;;;10.83;100.00;93877.63;5129897;27;20241;-80
2022/11/19 04:49:35;;;;;;;13.67;9.03;;;;;;;10.82;100.00;93896.06;5131948;27;20188;-79
2022/11/19 04:52:02;;;;;;;21.30;11.87;;;;;;;10.80;100.00;93892.91;5134537;27;20203;-80
2022/11/19 04:54:30;;;;;;;22.93;13.87;;;;;;;10.87;100.00;93896.13;5129342;27;20203;-78
2022/11/19 04:56:56;;;;;;;24.87;16.23;;;;;;;10.87;100.00;93879.75;5130389;27;20202;-79
2022/11/19 04:59:23;;;;;;;25.53;16.10;;;;;;;11.00;100.00;93900.19;5132183;27;20240;-78
2022/11/19 05:01:50;;;;;;;23.00;14.57;;;;;;;11.03;100.00;93910.91;5132644;27;20637;-78
2022/11/19 05:04:17;;;;;;;25.80;16.13;;;;;;;11.01;100.00;93920.78;5133391;27;20625;-79
2022/11/19 05:06:44;;;;;;;28.90;17.87;;;;;;;10.98;100.00;93915.25;5132249;27;20249;-79
2022/11/19 05:09:11;;;;;;;25.10;16.60;;;;;;;10.93;100.00;93923.00;5129065;27;20191;-78
2022/11/19 05:11:39;;;;;;;26.87;17.57;;;;;;;10.97;100.00;93937.88;5129468;27;20211;-79
2022/11/19 05:14:06;;;;;;;26.33;16.60;;;;;;;11.01;100.00;93943.38;5130000;27;20198;-79
2022/11/19 05:16:33;;;;;;;24.00;15.40;;;;;;;10.97;100.00;93945.66;5129105;27;20200;-79
2022/11/19 05:19:00;;;;;;;24.43;15.20;;;;;;;11.03;100.00;93955.13;5132135;27;20219;-79
2022/11/19 05:21:27;;;;;;;23.23;14.77;;;;;;;11.04;100.00;93961.91;5135917;27;20207;-79
2022/11/19 05:23:54;;;;;;;21.00;14.30;;;;;;;11.01;100.00;93964.19;5134079;27;20307;-80
2022/11/19 05:26:20;;;;;;;20.23;13.57;;;;;;;10.94;100.00;93963.56;5133127;27;20203;-79
2022/11/19 05:28:49;;;;;;;21.80;15.27;;;;;;;10.93;100.00;93960.19;5136124;27;20237;-78
2022/11/19 05:31:15;;;;;;;22.27;15.00;;;;;;;10.90;100.00;93970.25;5133075;27;20183;-79
2022/11/19 05:33:42;;;;;;;21.97;13.60;;;;;;;10.71;100.00;93973.06;5136932;27;20195;-78
2022/11/19 05:36:09;;;;;;;15.17;8.30;;;;;;;10.60;100.00;93976.53;5136090;27;20191;-78
2022/11/19 05:38:36;;;;;;;13.50;7.77;;;;;;;10.63;100.00;93983.06;5133233;27;20219;-79
2022/11/19 05:41:03;;;;;;;11.83;7.63;;;;;;;10.56;100.00;93990.25;5134530;27;20199;-80
2022/11/19 05:43:30;;;;;;;10.93;7.33;;;;;;;10.55;100.00;93999.03;5134195;27;20677;-80
2022/11/19 05:46:00;;;;;;;12.87;8.33;;;;;;;10.57;100.00;94017.78;5135456;27;20621;-79
2022/11/19 05:48:27;;;;;;;11.50;8.03;;;;;;;10.55;100.00;94020.63;5133621;27;20555;-79
2022/11/19 05:50:54;;;;;;;13.13;8.30;;;;;;;10.56;100.00;94024.78;5135834;27;20209;-77
2022/11/19 05:53:21;;;;;;;12.00;8.40;;;;;;;10.47;100.00;94002.81;5135470;27;20200;-79
2022/11/19 05:55:47;;;;;;;15.07;10.07;;;;;;;10.57;100.00;94026.38;5135314;27;20622;-80
2022/11/19 05:58:14;;;;;;;19.43;14.50;;;;;;;10.56;100.00;94019.59;5134704;27;20637;-77
2022/11/19 06:00:41;;;;;;;16.90;11.70;;;;;;;10.53;100.00;94024.47;5133412;27;21027;-79
2022/11/19 06:03:10;;;;;;;24.60;17.83;;;;;;;10.55;100.00;94023.22;5132799;27;20191;-79
2022/11/19 06:05:37;;;;;;;27.60;21.33;;;;;;;10.58;100.00;94027.94;5132395;27;20703;-81
2022/11/19 06:08:05;;;;;;;33.43;23.10;;;;;;;10.64;100.00;94032.22;5133242;27;20202;-78
2022/11/19 06:10:31;;;;;;;34.93;24.70;;;;;;;10.63;100.00;94038.44;5132547;27;20192;-80
2022/11/19 06:12:58;;;;;;;31.50;23.13;;;;;;;10.65;100.00;94041.56;5135637;27;20559;-79
2022/11/19 06:15:25;;;;;;;30.53;22.13;;;;;;;10.57;100.00;94035.97;5133510;27;20653;-80
2022/11/19 06:17:52;;;;;;;31.87;22.63;;;;;;;10.73;100.00;94058.63;5133706;27;20302;-80
2022/11/19 06:20:20;;;;;;;32.67;21.57;;;;;;;10.74;100.00;94068.75;5135162;27;20196;-78
2022/11/19 06:22:47;;;;;;;32.80;23.57;;;;;;;10.79;100.00;94068.09;5133717;27;20198;-78
2022/11/19 06:25:13;;;;;;;31.80;22.73;;;;;;;10.70;100.00;94072.88;5134421;27;20233;-79
2022/11/19 06:27:40;;;;;;;33.20;21.10;;;;;;;10.77;100.00;94083.09;5138762;27;20206;-79
2022/11/19 06:30:08;;;;;;;28.33;20.30;;;;;;;10.69;100.00;94086.06;5131353;27;20202;-79
2022/11/19 06:32:35;;;;;;;32.77;20.77;;;;;;;10.73;100.00;94089.81;5131398;27;20210;-79
2022/11/19 06:35:02;;;;;;;33.87;20.80;;;;;;;10.82;100.00;94096.22;5134706;27;20195;-79
2022/11/19 06:37:30;;;;;;;27.30;19.57;;;;;;;10.80;100.00;94095.63;5132059;27;20571;-79
2022/11/19 06:39:57;;;;;;;31.30;22.00;;;;;;;10.80;100.00;94098.22;5133708;27;20626;-79
2022/11/19 06:42:36;;;;;;;39.87;26.33;;;;;;;10.71;100.00;94099.63;5132650;27;20206;-78
2022/11/19 06:45:04;;;;;;;50.10;28.40;;;;;;;10.78;100.00;94103.66;5132510;27;20199;-79
2022/11/19 06:47:31;;;;;;;42.57;28.57;;;;;;;10.84;100.00;94117.56;5132332;27;20695;-79
2022/11/19 06:49:58;;;;;;;62.57;40.93;;;;;;;10.82;100.00;94112.56;5138096;27;20563;-79
2022/11/19 06:52:25;;;;;;;45.47;31.70;;;;;;;10.73;100.00;94121.78;5133949;27;20198;-78
2022/11/19 06:54:54;;;;;;;46.27;29.80;;;;;;;10.68;100.00;94120.88;5133776;27;20191;-79
2022/11/19 06:57:21;;;;;;;46.40;28.23;;;;;;;10.73;100.00;94128.78;5133054;27;20290;-78
2022/11/19 06:59:48;;;;;;;41.33;25.63;;;;;;;10.71;100.00;94131.59;5132281;27;20215;-78
2022/11/19 07:02:15;;;;;;;37.60;25.50;;;;;;;10.68;100.00;94128.66;5135645;27;20701;-80
2022/11/19 07:04:41;;;;;;;37.47;25.80;;;;;;;10.71;100.00;94141.19;5137377;27;20192;-79
2022/11/19 07:07:09;;;;;;;38.20;25.63;;;;;;;10.78;100.00;94137.47;5135659;27;20199;-79
2022/11/19 07:09:36;;;;;;;38.53;25.30;;;;;;;10.91;100.00;94141.56;5135724;27;20195;-77
2022/11/19 07:12:05;;;;;;;38.30;26.37;;;;;;;10.92;100.00;94132.75;5132421;27;20207;-79
2022/11/19 07:14:31;;;;;;;36.03;25.00;;;;;;;11.03;100.00;94141.53;5135366;27;20192;-77
2022/11/19 07:16:58;;;;;;;37.20;24.47;;;;;;;11.10;100.00;94142.19;5132113;27;20195;-78
2022/11/19 07:19:25;;;;;;;32.43;22.20;;;;;;;11.21;100.00;94144.72;5132617;27;20259;-78
2022/11/19 07:21:52;;;;;;;23.83;17.00;;;;;;;11.20;100.00;94150.16;5132876;27;20580;-77
2022/11/19 07:24:18;;;;;;;22.97;15.23;;;;;;;11.18;100.00;94145.19;5131872;27;20582;-76
2022/11/19 07:26:45;;;;;;;23.97;15.57;;;;;;;11.24;100.00;94144.28;5133320;27;20649;-76
2022/11/19 07:29:14;;;;;;;22.23;14.57;;;;;;;11.31;100.00;94138.94;5135442;27;20191;-76
2022/11/19 07:31:42;;;;;;;16.53;11.37;;;;;;;11.40;100.00;94138.28;5131945;27;20196;-78
2022/11/19 07:34:09;;;;;;;18.90;12.70;;;;;;;11.53;100.00;94136.41;5131023;27;20874;-77
2022/11/19 07:36:37;;;;;;;15.83;10.93;;;;;;;11.67;100.00;94135.06;5131524;27;20202;-78
2022/11/19 07:39:04;;;;;;;14.07;9.50;;;;;;;11.75;100.00;94126.88;5132687;27;20971;-78
2022/11/19 07:44:17;;;;;;;13.27;8.87;;;;;;;12.06;100.00;94141.94;5132481;27;20199;-78
2022/11/19 07:46:43;;;;;;;9.27;7.17;;;;;;;12.09;100.00;94140.69;5136231;27;20191;-79
2022/11/19 07:49:11;;;;;;;16.17;9.97;;;;;;;12.05;100.00;94145.56;5133817;27;20646;-79
2022/11/19 07:51:37;;;;;;;14.43;10.43;;;;;;;12.14;100.00;94141.53;5131348;27;20203;-79
2022/11/19 07:54:04;;;;;;;12.87;7.90;;;;;;;12.31;100.00;94138.88;5132964;27;20260;-79
2022/11/19 07:56:31;;;;;;;11.27;8.10;;;;;;;12.30;100.00;94145.09;5134289;27;20191;-80
2022/11/19 07:59:00;;;;;;;11.13;7.20;;;;;;;12.39;100.00;94154.88;5132643;27;20215;-80
2022/11/19 08:01:28;;;;;;;8.33;6.60;;;;;;;12.48;100.00;94155.25;5131404;27;20203;-79
2022/11/19 08:03:56;;;;;;;9.23;7.20;;;;;;;12.58;100.00;94163.22;5132628;27;20789;-80
2022/11/19 08:06:24;;;;;;;8.97;6.60;;;;;;;12.67;100.00;94166.97;5134600;27;20560;-79
2022/11/19 08:08:51;;;;;;;8.50;6.47;;;;;;;12.78;100.00;94171.28;5135441;27;20660;-79
2022/11/19 08:11:18;;;;;;;9.57;6.80;;;;;;;12.90;100.00;94174.53;5136497;27;20219;-80
2022/11/19 08:13:47;;;;;;;12.07;7.37;;;;;;;13.02;100.00;94169.97;5135208;27;20198;-78
2022/11/19 08:18:10;;;;;;;7.10;5.90;;;;;;;13.11;100.00;94172.19;5132930;27;20438;-77
2022/11/19 08:19:06;;;;;;;9.90;6.83;;;;;;;13.23;100.00;94176.25;5135835;27;21205;-78
2022/11/19 08:21:33;;;;;;;8.10;6.80;;;;;;;13.36;100.00;94165.41;5132828;27;20199;-76
2022/11/19 08:24:00;;;;;;;11.07;6.77;;;;;;;13.50;100.00;94177.03;5131641;27;20234;-77
2022/11/19 08:26:27;;;;;;;8.80;7.10;;;;;;;13.60;100.00;94173.72;5133040;27;20237;-77
2022/11/19 08:28:54;;;;;;;7.67;5.87;;;;;;;13.67;100.00;94183.97;5133841;27;20653;-78
2022/11/19 08:31:24;;;;;;;9.83;6.23;;;;;;;13.73;100.00;94180.34;5131665;27;20334;-77
2022/11/19 08:33:51;;;;;;;9.20;5.87;;;;;;;13.81;100.00;94185.13;5135392;27;20194;-78
2022/11/19 08:36:19;;;;;;;6.43;4.97;;;;;;;13.78;100.00;94181.19;5139193;27;20199;-77
2022/11/19 08:38:46;;;;;;;6.43;4.80;;;;;;;13.74;100.00;94181.94;5136031;27;20213;-78
2022/11/19 08:44:00;;;;;;;8.47;5.23;;;;;;;13.89;100.00;94189.88;5130109;27;20202;-80
2022/11/19 08:46:27;;;;;;;5.53;4.90;;;;;;;13.93;100.00;94198.81;5129959;27;20219;-81
2022/11/19 08:48:54;;;;;;;6.33;5.20;;;;;;;14.04;100.00;94195.22;5135072;27;20191;-80
2022/11/19 08:51:22;;;;;;;8.40;5.13;;;;;;;14.12;100.00;94181.69;5135022;27;20194;-79
2022/11/19 08:53:51;;;;;;;5.87;4.60;;;;;;;14.20;100.00;94192.47;5134769;27;20571;-81
2022/11/19 08:56:18;;;;;;;7.83;4.90;;;;;;;14.32;100.00;94181.03;5136926;27;20191;-79
2022/11/19 08:58:45;;;;;;;5.07;4.57;;;;;;;14.38;100.00;94187.91;5137549;27;20597;-80
2022/11/19 09:01:14;;;;;;;6.60;4.70;;;;;;;14.35;100.00;94177.94;5142220;27;20191;-79
2022/11/19 09:03:41;;;;;;;4.97;4.10;;;;;;;14.39;100.00;94192.91;5138998;27;20203;-75
2022/11/19 09:06:09;;;;;;;5.90;4.73;;;;;;;14.41;100.00;94197.84;5138105;27;20280;-75
2022/11/19 09:08:37;;;;;;;6.57;5.00;;;;;;;14.54;100.00;94215.72;5138376;27;20202;-75
2022/11/19 09:11:07;;;;;;;7.30;5.10;;;;;;;14.66;100.00;94203.25;5139813;27;20551;-75
2022/11/19 09:13:34;;;;;;;7.40;5.07;;;;;;;14.60;100.00;94201.66;5136495;27;20238;-75
2022/11/19 09:16:01;;;;;;;8.40;5.43;;;;;;;14.56;100.00;94214.44;5139490;27;20599;-74
2022/11/19 09:18:28;;;;;;;6.63;4.93;;;;;;;14.59;100.00;94213.13;5140213;27;20247;-76
2022/11/19 09:20:55;;;;;;;8.13;5.70;;;;;;;14.61;100.00;94206.63;5142659;27;20959;-76
2022/11/19 09:23:22;;;;;;;8.07;5.40;;;;;;;14.62;100.00;94200.34;5136615;27;20213;-76
2022/11/19 09:25:56;;;;;;;9.23;5.10;;;;;;;14.43;100.00;94196.56;5146559;27;20227;-83
2022/11/19 09:28:23;;;;;;;5.87;5.00;;;;;;;14.47;100.00;94195.03;5144072;27;20603;-83
2022/11/19 09:30:55;;;;;;;7.10;5.27;;;;;;;14.56;100.00;94188.28;5146276;27;20661;-82
2022/11/19 09:33:22;;;;;;;6.17;5.50;;;;;;;14.77;100.00;94189.94;5143489;27;20191;-84
2022/11/19 09:35:49;;;;;;;7.40;5.60;;;;;;;15.47;100.00;94193.09;5140182;27;20199;-83
2022/11/19 09:38:16;;;;;;;7.87;5.23;;;;;;;16.57;100.00;94183.66;5140050;27;20252;-83
2022/11/19 09:40:45;;;;;;;7.93;5.00;;;;;;;18.09;91.17;94192.38;5146080;27;20329;-83
2022/11/19 09:43:20;;;;;;;8.23;4.00;;;;;;;19.60;84.33;94180.22;5137361;27;20559;-83
2022/11/19 09:45:58;;;;;;;4.77;3.73;;;;;;;20.81;78.65;94186.16;5133920;27;20285;-79
2022/11/19 09:48:33;;;;;;;4.43;4.03;;;;;;;21.61;74.10;94183.03;5136726;27;20190;-83
2022/11/19 09:51:04;;;;;;;4.90;3.90;;;;;;;22.36;70.61;94172.56;5141184;27;20190;-79
2022/11/19 09:53:35;;;;;;;6.03;4.00;;;;;;;22.52;69.18;94157.84;5136565;27;20191;-79
2022/11/19 09:56:02;;;;;;;7.22;5.13;;;;;;;21.98;71.27;94158.91;5135962;27;20419;-78
2022/11/19 09:58:38;;;;;;;4.88;4.38;;;;;;;21.78;72.34;94162.00;5137945;27;20198;-78
2022/11/19 10:01:05;;;;;;;6.22;4.45;;;;;;;22.36;72.15;94161.19;5137262;27;20200;-78
2022/11/19 10:03:32;;;;;;;6.55;5.15;;;;;;;23.24;68.50;94164.66;5137222;27;20287;-78
2022/11/19 10:06:12;;;;;;;7.47;5.03;;;;;;;24.08;67.00;94165.88;5136490;27;20199;-76
2022/11/19 10:08:56;;;;;;;6.53;5.07;;;;;;;24.89;65.12;94171.22;5138064;27;20191;-77
2022/11/19 10:11:35;;;;;;;5.93;5.00;;;;;;;25.76;62.02;94162.44;5134624;27;20195;-80
2022/11/19 10:14:15;;;;;;;7.30;5.35;;;;;;;27.05;56.45;94162.00;5132340;27;20585;-80
2022/11/19 10:16:55;;;;;;;6.78;4.75;;;;;;;27.48;52.70;94161.47;5138196;27;20191;-80
2022/11/19 10:19:37;;;;;;;6.15;3.88;;;;;;;27.58;52.79;94169.03;5136719;27;20678;-82
2022/11/19 10:22:10;;;;;;;8.07;3.60;;;;;;;28.15;49.61;94182.16;5134125;27;20206;-80
2022/11/19 10:24:42;;;;;;;2.97;1.83;;;;;;;27.47;46.81;94188.50;5132166;27;20697;-80
2022/11/19 10:27:18;;;;;;;3.33;1.98;;;;;;;26.85;49.29;94183.44;5133511;27;20219;-80
2022/11/19 10:29:50;;;;;;;2.65;1.90;;;;;;;26.42;50.97;94173.97;5139911;27;20572;-79
2022/11/19 10:32:25;;;;;;;3.53;2.22;;;;;;;25.94;51.06;94161.19;5133900;27;20214;-80
2022/11/19 10:34:57;;;;;;;5.55;2.40;;;;;;;26.17;52.01;94158.25;5134587;27;20209;-81
2022/11/19 10:37:29;;;;;;;4.60;2.67;;;;;;;26.05;51.31;94158.94;5131907;27;20199;-79
2022/11/19 10:40:02;;;;;;;4.57;2.40;;;;;;;25.79;51.42;94150.38;5131565;27;20456;-81
2022/11/19 10:42:33;;;;;;;5.18;2.50;;;;;;;25.35;52.81;94165.03;5131665;27;20195;-79
2022/11/19 10:45:05;;;;;;;4.25;2.38;;;;;;;24.75;54.07;94146.69;5132299;27;20546;-77
2022/11/19 10:47:38;;;;;;;3.60;2.60;;;;;;;24.48;56.00;94131.91;5132669;27;20602;-76
2022/11/19 10:50:06;;;;;;;5.13;3.30;;;;;;;24.44;56.33;94138.97;5136545;27;20195;-77
2022/11/19 10:52:40;;;;;;;5.95;4.40;;;;;;;24.91;56.25;94129.13;5131335;27;20206;-78
2022/11/19 10:55:18;;;;;;;6.35;4.18;;;;;;;25.21;55.42;94132.56;5133718;27;20431;-77
2022/11/19 10:57:48;;;;;;;7.47;4.30;;;;;;;25.21;55.80;94137.88;5134695;27;20191;-77
2022/11/19 11:00:17;;;;;;;5.82;4.22;;;;;;;24.53;56.46;94138.94;5131998;27;20215;-80
2022/11/19 11:02:46;;;;;;;6.05;4.43;;;;;;;24.26;57.73;94140.09;5136260;27;20199;-80
2022/11/19 11:05:16;;;;;;;7.40;4.32;;;;;;;24.13;58.27;94130.41;5133949;27;20282;-80
2022/11/19 11:07:49;;;;;;;7.32;4.40;;;;;;;23.46;59.29;94132.78;5135218;27;20222;-78
2022/11/19 11:10:27;;;;;;;6.25;4.18;;;;;;;23.51;59.14;94133.41;5135094;27;20190;-77
2022/11/19 11:15:48;;;;;;;8.48;4.00;;;;;;;24.64;56.53;94135.63;5135655;27;20186;-77
2022/11/19 11:18:15;;;;;;;6.72;3.90;;;;;;;25.27;55.30;94112.66;5137565;27;20187;-76
2022/11/19 11:20:47;;;;;;;8.18;3.53;;;;;;;26.24;51.75;94121.16;5137606;27;20215;-79
2022/11/19 11:23:17;;;;;;;6.60;3.20;;;;;;;26.98;50.92;94126.31;5138569;27;20524;-78
2022/11/19 11:26:05;;;;;;;5.78;3.75;;;;;;;26.79;51.38;94118.06;5136170;27;20223;-78
2022/11/19 11:28:32;;;;;;;6.20;3.70;;;;;;;26.43;51.25;94124.13;5134820;27;20199;-78
2022/11/19 11:31:02;;;;;;;9.65;4.18;;;;;;;25.40;53.24;94125.72;5136148;27;20187;-78
2022/11/19 11:33:34;;;;;;;8.40;4.70;;;;;;;24.58;54.54;94126.25;5134999;27;20191;-78
2022/11/19 11:36:08;;;;;;;7.28;4.40;;;;;;;24.36;55.26;94107.13;5138631;27;20888;-77
2022/11/19 11:38:41;;;;;;;8.13;4.75;;;;;;;24.45;55.82;94095.34;5130206;27;20195;-80
2022/11/19 11:41:10;;;;;;;6.53;4.68;;;;;;;24.64;55.74;94101.06;5130142;27;20222;-83
2022/11/19 11:43:40;;;;;;;8.55;4.40;;;;;;;24.52;56.02;94095.63;5130013;27;20682;-79
2022/11/19 11:46:10;;;;;;;9.07;4.35;;;;;;;24.51;55.86;94106.56;5127932;27;20811;-78
2022/11/19 11:48:44;;;;;;;8.80;4.78;;;;;;;24.22;56.17;94107.28;5129176;27;20202;-79
2022/11/19 11:51:26;;;;;;;7.70;4.47;;;;;;;23.83;57.52;94100.28;5130685;27;20195;-77
2022/11/19 11:54:05;;;;;;;9.75;4.30;;;;;;;23.11;58.80;94094.78;5130574;27;20256;-77